sensor_id;sensor_type;location;lat;lon;timestamp;noise_LAeq;noise_LA_min;noise_LA_max;noise_LA01;noise_LA95
17594;Laerm;8916;47.086;15.920;2022-10-17T00:01:34;49.08;47.98;50.15;;
17594;Laerm;8916;47.086;15.920;2022-10-17T00:04:03;49.09;48.03;50.35;;
17594;Laerm;8916;47.086;15.920;2022-10-17T00:06:32;49.10;48.07;50.20;;
17594;Laerm;8916;47.086;15.920;2022-10-17T00:09:02;49.08;47.93;50.33;;
17594;Laerm;8916;47.086;15.920;2022-10-17T00:11:31;49.09;47.95;50.24;;
17594;Laerm;8916;47.086;15.920;2022-10-17T00:14:01;49.09;48.03;50.32;;
17594;Laerm;8916;47.086;15.920;2022-10-17T00:16:34;49.08;47.96;50.24;;
17594;Laerm;8916;47.086;15.920;2022-10-17T00:19:05;49.08;47.84;50.35;;
17594;Laerm;8916;47.086;15.920;2022-10-17T00:21:34;49.09;47.96;50.43;;
17594;Laerm;8916;47.086;15.920;2022-10-17T00:24:04;49.09;47.90;50.22;;
17594;Laerm;8916;47.086;15.920;2022-10-17T00:26:34;49.10;48.10;50.22;;
17594;Laerm;8916;47.086;15.920;2022-10-17T00:29:03;49.10;47.88;50.22;;
17594;Laerm;8916;47.086;15.920;2022-10-17T00:31:34;49.09;47.90;50.27;;
17594;Laerm;8916;47.086;15.920;2022-10-17T00:34:04;49.10;47.98;50.20;;
17594;Laerm;8916;47.086;15.920;2022-10-17T00:36:33;49.10;47.98;50.33;;
17594;Laerm;8916;47.086;15.920;2022-10-17T00:39:03;49.09;47.91;50.34;;
17594;Laerm;8916;47.086;15.920;2022-10-17T00:41:33;49.09;48.05;50.25;;
17594;Laerm;8916;47.086;15.920;2022-10-17T00:44:53;49.10;47.93;50.27;;
17594;Laerm;8916;47.086;15.920;2022-10-17T00:47:00;49.11;48.12;50.25;;
17594;Laerm;8916;47.086;15.920;2022-10-17T00:49:34;49.10;48.02;50.33;;
17594;Laerm;8916;47.086;15.920;2022-10-17T00:52:09;49.10;47.88;50.20;;
17594;Laerm;8916;47.086;15.920;2022-10-17T00:54:45;49.11;47.95;50.30;;
17594;Laerm;8916;47.086;15.920;2022-10-17T00:57:16;49.10;48.10;50.18;;
17594;Laerm;8916;47.086;15.920;2022-10-17T00:59:48;49.10;48.02;50.37;;
17594;Laerm;8916;47.086;15.920;2022-10-17T01:02:21;49.11;47.98;50.27;;
17594;Laerm;8916;47.086;15.920;2022-10-17T01:04:54;49.11;47.96;50.25;;
17594;Laerm;8916;47.086;15.920;2022-10-17T01:07:27;49.12;48.02;50.37;;
17594;Laerm;8916;47.086;15.920;2022-10-17T01:10:04;49.11;48.10;50.21;;
17594;Laerm;8916;47.086;15.920;2022-10-17T01:12:45;49.12;47.91;50.08;;
17594;Laerm;8916;47.086;15.920;2022-10-17T01:15:28;49.11;48.02;50.21;;
17594;Laerm;8916;47.086;15.920;2022-10-17T01:18:17;49.12;47.98;50.24;;
17594;Laerm;8916;47.086;15.920;2022-10-17T01:21:38;49.11;48.00;50.21;;
17594;Laerm;8916;47.086;15.920;2022-10-17T01:25:03;49.11;48.13;50.21;;
17594;Laerm;8916;47.086;15.920;2022-10-17T01:27:51;49.11;48.10;50.26;;
17594;Laerm;8916;47.086;15.920;2022-10-17T01:31:03;49.12;47.96;50.28;;
17594;Laerm;8916;47.086;15.920;2022-10-17T01:33:52;49.12;47.79;50.17;;
17594;Laerm;8916;47.086;15.920;2022-10-17T01:36:36;49.12;47.74;50.49;;
17594;Laerm;8916;47.086;15.920;2022-10-17T01:39:15;49.12;47.98;50.27;;
17594;Laerm;8916;47.086;15.920;2022-10-17T01:41:51;49.12;47.83;50.20;;
17594;Laerm;8916;47.086;15.920;2022-10-17T01:44:27;49.12;48.07;50.40;;
17594;Laerm;8916;47.086;15.920;2022-10-17T01:47:05;49.12;48.08;50.30;;
17594;Laerm;8916;47.086;15.920;2022-10-17T01:49:39;49.12;47.91;50.34;;
17594;Laerm;8916;47.086;15.920;2022-10-17T01:52:13;49.11;47.93;50.15;;
17594;Laerm;8916;47.086;15.920;2022-10-17T01:54:47;49.12;48.03;50.38;;
17594;Laerm;8916;47.086;15.920;2022-10-17T01:57:26;49.12;48.08;50.47;;
17594;Laerm;8916;47.086;15.920;2022-10-17T01:59:57;49.11;48.07;50.31;;
17594;Laerm;8916;47.086;15.920;2022-10-17T02:02:30;49.11;47.91;50.41;;
17594;Laerm;8916;47.086;15.920;2022-10-17T02:05:01;49.11;48.08;50.26;;
17594;Laerm;8916;47.086;15.920;2022-10-17T02:07:30;49.13;48.08;50.24;;
17594;Laerm;8916;47.086;15.920;2022-10-17T02:09:59;49.12;48.03;50.39;;
17594;Laerm;8916;47.086;15.920;2022-10-17T02:12:47;49.12;48.07;50.23;;
17594;Laerm;8916;47.086;15.920;2022-10-17T02:15:34;49.12;48.07;50.60;;
17594;Laerm;8916;47.086;15.920;2022-10-17T02:18:20;49.12;48.12;50.20;;
17594;Laerm;8916;47.086;15.920;2022-10-17T02:20:59;49.13;48.13;50.33;;
17594;Laerm;8916;47.086;15.920;2022-10-17T02:23:36;49.12;47.98;50.35;;
17594;Laerm;8916;47.086;15.920;2022-10-17T02:26:12;49.13;47.90;50.26;;
17594;Laerm;8916;47.086;15.920;2022-10-17T02:28:55;49.13;48.08;50.40;;
17594;Laerm;8916;47.086;15.920;2022-10-17T02:31:32;49.14;47.84;50.21;;
17594;Laerm;8916;47.086;15.920;2022-10-17T02:34:12;49.14;47.93;50.34;;
17594;Laerm;8916;47.086;15.920;2022-10-17T02:36:50;49.12;48.02;50.23;;
17594;Laerm;8916;47.086;15.920;2022-10-17T02:39:22;49.13;48.00;50.20;;
17594;Laerm;8916;47.086;15.920;2022-10-17T02:41:55;49.13;48.08;50.32;;
17594;Laerm;8916;47.086;15.920;2022-10-17T02:44:26;49.14;47.90;50.23;;
17594;Laerm;8916;47.086;15.920;2022-10-17T02:47:04;49.13;48.05;50.27;;
17594;Laerm;8916;47.086;15.920;2022-10-17T02:49:41;49.13;48.10;50.23;;
17594;Laerm;8916;47.086;15.920;2022-10-17T02:52:14;49.13;48.10;50.17;;
17594;Laerm;8916;47.086;15.920;2022-10-17T02:54:50;49.13;48.10;50.11;;
17594;Laerm;8916;47.086;15.920;2022-10-17T02:57:26;49.14;47.96;50.41;;
17594;Laerm;8916;47.086;15.920;2022-10-17T02:59:58;49.13;47.96;50.25;;
17594;Laerm;8916;47.086;15.920;2022-10-17T03:02:38;49.13;48.02;50.35;;
17594;Laerm;8916;47.086;15.920;2022-10-17T03:05:14;49.14;48.05;50.30;;
17594;Laerm;8916;47.086;15.920;2022-10-17T03:07:44;49.14;48.07;50.25;;
17594;Laerm;8916;47.086;15.920;2022-10-17T03:10:14;49.14;47.96;50.17;;
17594;Laerm;8916;47.086;15.920;2022-10-17T03:12:43;49.14;47.96;50.31;;
17594;Laerm;8916;47.086;15.920;2022-10-17T03:15:13;49.14;48.10;50.49;;
17594;Laerm;8916;47.086;15.920;2022-10-17T03:17:43;49.13;47.90;50.19;;
17594;Laerm;8916;47.086;15.920;2022-10-17T03:20:19;49.14;47.93;50.22;;
17594;Laerm;8916;47.086;15.920;2022-10-17T03:22:49;49.15;47.96;50.23;;
17594;Laerm;8916;47.086;15.920;2022-10-17T03:25:19;49.13;48.13;50.45;;
17594;Laerm;8916;47.086;15.920;2022-10-17T03:27:49;49.15;47.93;50.32;;
17594;Laerm;8916;47.086;15.920;2022-10-17T03:30:18;49.15;48.08;50.25;;
17594;Laerm;8916;47.086;15.920;2022-10-17T03:32:51;49.15;47.90;50.10;;
17594;Laerm;8916;47.086;15.920;2022-10-17T03:35:21;49.15;48.07;50.31;;
17594;Laerm;8916;47.086;15.920;2022-10-17T03:37:51;49.14;47.84;50.22;;
17594;Laerm;8916;47.086;15.920;2022-10-17T03:40:21;49.14;48.05;50.41;;
17594;Laerm;8916;47.086;15.920;2022-10-17T03:42:51;49.13;47.95;50.22;;
17594;Laerm;8916;47.086;15.920;2022-10-17T03:45:20;49.15;48.08;50.26;;
17594;Laerm;8916;47.086;15.920;2022-10-17T03:47:51;49.16;47.88;50.33;;
17594;Laerm;8916;47.086;15.920;2022-10-17T03:50:22;49.15;48.16;50.34;;
17594;Laerm;8916;47.086;15.920;2022-10-17T03:52:51;49.15;47.98;50.46;;
17594;Laerm;8916;47.086;15.920;2022-10-17T03:55:20;49.14;48.16;50.18;;
17594;Laerm;8916;47.086;15.920;2022-10-17T03:57:50;49.15;47.96;50.61;;
17594;Laerm;8916;47.086;15.920;2022-10-17T04:00:21;49.15;48.04;50.29;;
17594;Laerm;8916;47.086;15.920;2022-10-17T04:02:56;49.15;48.07;50.30;;
17594;Laerm;8916;47.086;15.920;2022-10-17T04:05:28;49.14;48.02;50.28;;
17594;Laerm;8916;47.086;15.920;2022-10-17T04:07:59;49.14;48.10;50.31;;
17594;Laerm;8916;47.086;15.920;2022-10-17T04:11:14;49.14;48.01;50.36;;
17594;Laerm;8916;47.086;15.920;2022-10-17T04:13:44;49.14;48.08;50.29;;
17594;Laerm;8916;47.086;15.920;2022-10-17T04:16:15;49.13;48.07;50.48;;
17594;Laerm;8916;47.086;15.920;2022-10-17T04:18:53;49.13;48.08;50.25;;
17594;Laerm;8916;47.086;15.920;2022-10-17T04:21:28;49.14;48.00;50.37;;
17594;Laerm;8916;47.086;15.920;2022-10-17T04:24:04;49.14;47.83;50.29;;
17594;Laerm;8916;47.086;15.920;2022-10-17T04:26:48;49.13;48.16;50.33;;
17594;Laerm;8916;47.086;15.920;2022-10-17T04:29:19;49.14;47.84;50.25;;
17594;Laerm;8916;47.086;15.920;2022-10-17T04:31:51;49.14;48.12;50.28;;
17594;Laerm;8916;47.086;15.920;2022-10-17T04:34:40;49.15;48.05;50.34;;
17594;Laerm;8916;47.086;15.920;2022-10-17T04:37:12;49.15;48.03;50.25;;
17594;Laerm;8916;47.086;15.920;2022-10-17T04:39:43;49.15;47.84;50.53;;
17594;Laerm;8916;47.086;15.920;2022-10-17T04:42:12;49.14;48.13;50.33;;
17594;Laerm;8916;47.086;15.920;2022-10-17T04:44:42;49.16;48.07;50.29;;
17594;Laerm;8916;47.086;15.920;2022-10-17T04:47:13;49.15;48.08;50.28;;
17594;Laerm;8916;47.086;15.920;2022-10-17T04:49:42;49.16;47.88;50.30;;
17594;Laerm;8916;47.086;15.920;2022-10-17T04:52:17;49.17;47.96;50.34;;
17594;Laerm;8916;47.086;15.920;2022-10-17T04:54:49;49.15;48.18;50.27;;
17594;Laerm;8916;47.086;15.920;2022-10-17T04:57:18;49.15;48.10;50.24;;
17594;Laerm;8916;47.086;15.920;2022-10-17T04:59:58;49.15;47.78;50.18;;
17594;Laerm;8916;47.086;15.920;2022-10-17T05:02:46;49.15;47.96;50.42;;
17594;Laerm;8916;47.086;15.920;2022-10-17T05:05:15;49.15;48.03;50.25;;
17594;Laerm;8916;47.086;15.920;2022-10-17T05:07:48;49.15;48.12;50.27;;
17594;Laerm;8916;47.086;15.920;2022-10-17T05:10:19;49.15;48.03;50.21;;
17594;Laerm;8916;47.086;15.920;2022-10-17T05:12:51;49.15;47.95;50.26;;
17594;Laerm;8916;47.086;15.920;2022-10-17T05:15:23;49.16;48.03;50.35;;
17594;Laerm;8916;47.086;15.920;2022-10-17T05:17:54;49.14;48.12;50.21;;
17594;Laerm;8916;47.086;15.920;2022-10-17T05:20:26;49.16;48.10;50.39;;
17594;Laerm;8916;47.086;15.920;2022-10-17T05:22:57;49.15;48.10;50.28;;
17594;Laerm;8916;47.086;15.920;2022-10-17T05:25:34;49.14;48.07;50.37;;
17594;Laerm;8916;47.086;15.920;2022-10-17T05:28:04;49.14;48.02;50.19;;
17594;Laerm;8916;47.086;15.920;2022-10-17T05:30:34;49.15;47.98;50.19;;
17594;Laerm;8916;47.086;15.920;2022-10-17T05:33:07;49.15;48.03;50.27;;
17594;Laerm;8916;47.086;15.920;2022-10-17T05:35:36;49.14;47.91;50.46;;
17594;Laerm;8916;47.086;15.920;2022-10-17T05:38:07;49.14;47.90;50.26;;
17594;Laerm;8916;47.086;15.920;2022-10-17T05:40:37;49.14;48.13;50.38;;
17594;Laerm;8916;47.086;15.920;2022-10-17T05:43:06;49.14;47.93;50.39;;
17594;Laerm;8916;47.086;15.920;2022-10-17T05:45:36;49.14;48.13;50.29;;
17594;Laerm;8916;47.086;15.920;2022-10-17T05:48:09;49.15;47.86;50.18;;
17594;Laerm;8916;47.086;15.920;2022-10-17T05:50:39;49.14;48.02;50.25;;
17594;Laerm;8916;47.086;15.920;2022-10-17T05:53:14;49.14;48.02;50.40;;
17594;Laerm;8916;47.086;15.920;2022-10-17T05:55:55;49.14;48.03;50.20;;
17594;Laerm;8916;47.086;15.920;2022-10-17T05:58:24;49.14;48.08;50.42;;
17594;Laerm;8916;47.086;15.920;2022-10-17T06:01:26;49.11;47.93;50.24;;
17594;Laerm;8916;47.086;15.920;2022-10-17T06:03:56;49.10;48.05;50.17;;
17594;Laerm;8916;47.086;15.920;2022-10-17T06:06:25;49.08;47.95;50.46;;
17594;Laerm;8916;47.086;15.920;2022-10-17T06:08:57;49.07;47.70;50.38;;
17594;Laerm;8916;47.086;15.920;2022-10-17T06:11:31;49.05;47.98;50.21;;
17594;Laerm;8916;47.086;15.920;2022-10-17T06:14:00;49.06;47.95;50.19;;
17594;Laerm;8916;47.086;15.920;2022-10-17T06:16:30;49.05;48.03;50.15;;
17594;Laerm;8916;47.086;15.920;2022-10-17T06:18:59;49.03;47.91;50.61;;
17594;Laerm;8916;47.086;15.920;2022-10-17T06:21:29;49.03;47.96;50.19;;
17594;Laerm;8916;47.086;15.920;2022-10-17T06:24:09;49.03;47.84;50.19;;
17594;Laerm;8916;47.086;15.920;2022-10-17T06:26:41;49.01;47.98;50.27;;
17594;Laerm;8916;47.086;15.920;2022-10-17T06:29:12;49.02;47.93;50.21;;
17594;Laerm;8916;47.086;15.920;2022-10-17T06:31:51;49.01;47.91;50.12;;
17594;Laerm;8916;47.086;15.920;2022-10-17T06:34:23;48.99;47.86;50.28;;
17594;Laerm;8916;47.086;15.920;2022-10-17T06:36:55;48.97;47.79;49.98;;
17594;Laerm;8916;47.086;15.920;2022-10-17T06:39:25;48.97;47.88;50.16;;
17594;Laerm;8916;47.086;15.920;2022-10-17T06:42:07;48.96;47.57;50.11;;
17594;Laerm;8916;47.086;15.920;2022-10-17T06:44:49;48.96;47.86;49.98;;
17594;Laerm;8916;47.086;15.920;2022-10-17T06:47:51;48.93;47.61;50.01;;
17594;Laerm;8916;47.086;15.920;2022-10-17T06:50:40;48.92;47.88;50.26;;
17594;Laerm;8916;47.086;15.920;2022-10-17T06:53:36;48.91;47.74;50.22;;
17594;Laerm;8916;47.086;15.920;2022-10-17T06:56:15;48.90;47.88;50.08;;
17594;Laerm;8916;47.086;15.920;2022-10-17T06:59:04;48.91;47.79;50.23;;
17594;Laerm;8916;47.086;15.920;2022-10-17T07:01:35;48.90;47.72;50.04;;
17594;Laerm;8916;47.086;15.920;2022-10-17T07:04:08;48.88;47.77;50.07;;
17594;Laerm;8916;47.086;15.920;2022-10-17T07:06:37;48.87;47.67;49.92;;
17594;Laerm;8916;47.086;15.920;2022-10-17T07:09:21;48.86;47.79;50.21;;
17594;Laerm;8916;47.086;15.920;2022-10-17T07:11:52;48.84;47.81;50.01;;
17594;Laerm;8916;47.086;15.920;2022-10-17T07:14:21;48.85;47.74;50.25;;
17594;Laerm;8916;47.086;15.920;2022-10-17T07:16:58;48.83;47.61;49.95;;
17594;Laerm;8916;47.086;15.920;2022-10-17T07:19:30;48.83;47.81;50.11;;
17594;Laerm;8916;47.086;15.920;2022-10-17T07:21:59;48.82;47.61;49.88;;
17594;Laerm;8916;47.086;15.920;2022-10-17T07:24:31;48.82;47.55;49.90;;
17594;Laerm;8916;47.086;15.920;2022-10-17T07:27:16;48.80;47.73;50.05;;
17594;Laerm;8916;47.086;15.920;2022-10-17T07:29:46;48.79;47.63;50.15;;
17594;Laerm;8916;47.086;15.920;2022-10-17T07:32:39;48.78;47.67;49.87;;
17594;Laerm;8916;47.086;15.920;2022-10-17T07:35:09;48.78;47.72;50.30;;
17594;Laerm;8916;47.086;15.920;2022-10-17T07:37:40;48.75;47.67;50.21;;
17594;Laerm;8916;47.086;15.920;2022-10-17T07:40:10;48.76;47.68;49.89;;
17594;Laerm;8916;47.086;15.920;2022-10-17T07:42:40;48.75;47.70;49.88;;
17594;Laerm;8916;47.086;15.920;2022-10-17T07:45:10;48.73;47.72;49.88;;
17594;Laerm;8916;47.086;15.920;2022-10-17T07:47:41;48.73;47.67;49.79;;
17594;Laerm;8916;47.086;15.920;2022-10-17T07:50:14;48.74;47.61;49.88;;
17594;Laerm;8916;47.086;15.920;2022-10-17T07:52:43;48.71;47.57;49.98;;
17594;Laerm;8916;47.086;15.920;2022-10-17T07:55:13;48.70;47.70;49.82;;
17594;Laerm;8916;47.086;15.920;2022-10-17T07:57:43;48.70;47.40;49.80;;
17594;Laerm;8916;47.086;15.920;2022-10-17T08:00:13;48.68;47.42;49.83;;
17594;Laerm;8916;47.086;15.920;2022-10-17T08:02:42;48.69;47.61;49.79;;
17594;Laerm;8916;47.086;15.920;2022-10-17T08:05:11;48.69;47.46;49.88;;
17594;Laerm;8916;47.086;15.920;2022-10-17T08:07:40;48.69;47.55;50.13;;
17594;Laerm;8916;47.086;15.920;2022-10-17T08:10:11;48.68;47.22;49.79;;
17594;Laerm;8916;47.086;15.920;2022-10-17T08:12:41;48.67;47.70;50.04;;
17594;Laerm;8916;47.086;15.920;2022-10-17T08:15:11;48.66;47.55;49.89;;
17594;Laerm;8916;47.086;15.920;2022-10-17T08:17:40;48.64;47.50;49.74;;
17594;Laerm;8916;47.086;15.920;2022-10-17T08:20:10;48.61;47.57;49.93;;
17594;Laerm;8916;47.086;15.920;2022-10-17T08:22:40;48.60;47.14;49.90;;
17594;Laerm;8916;47.086;15.920;2022-10-17T08:25:09;48.58;47.48;49.98;;
17594;Laerm;8916;47.086;15.920;2022-10-17T08:27:38;48.56;47.48;49.89;;
17594;Laerm;8916;47.086;15.920;2022-10-17T08:30:09;48.55;47.54;49.77;;
17594;Laerm;8916;47.086;15.920;2022-10-17T08:32:40;48.55;47.38;49.85;;
17594;Laerm;8916;47.086;15.920;2022-10-17T08:35:09;48.55;47.38;49.77;;
17594;Laerm;8916;47.086;15.920;2022-10-17T08:37:38;48.54;47.34;49.75;;
17594;Laerm;8916;47.086;15.920;2022-10-17T08:40:13;48.51;47.50;49.71;;
17594;Laerm;8916;47.086;15.920;2022-10-17T08:43:03;48.50;47.36;49.82;;
17594;Laerm;8916;47.086;15.920;2022-10-17T08:45:41;48.49;47.34;49.79;;
17594;Laerm;8916;47.086;15.920;2022-10-17T08:48:17;48.48;47.44;49.79;;
17594;Laerm;8916;47.086;15.920;2022-10-17T08:50:51;48.48;47.44;49.85;;
17594;Laerm;8916;47.086;15.920;2022-10-17T08:53:26;48.47;47.46;49.72;;
17594;Laerm;8916;47.086;15.920;2022-10-17T08:56:12;48.47;47.24;49.74;;
17594;Laerm;8916;47.086;15.920;2022-10-17T08:58:51;48.46;47.18;49.72;;
17594;Laerm;8916;47.086;15.920;2022-10-17T09:01:32;48.45;47.24;49.77;;
17594;Laerm;8916;47.086;15.920;2022-10-17T09:04:33;48.42;47.18;49.91;;
17594;Laerm;8916;47.086;15.920;2022-10-17T09:07:12;48.42;47.30;49.50;;
17594;Laerm;8916;47.086;15.920;2022-10-17T09:09:55;48.40;47.28;49.62;;
17594;Laerm;8916;47.086;15.920;2022-10-17T09:12:36;48.40;47.28;49.62;;
17594;Laerm;8916;47.086;15.920;2022-10-17T09:15:37;48.40;47.40;49.53;;
17594;Laerm;8916;47.086;15.920;2022-10-17T09:18:14;48.39;47.24;49.69;;
17594;Laerm;8916;47.086;15.920;2022-10-17T09:20:52;48.37;47.12;49.79;;
17594;Laerm;8916;47.086;15.920;2022-10-17T09:23:26;48.35;47.26;49.46;;
17594;Laerm;8916;47.086;15.920;2022-10-17T09:25:59;48.35;47.20;49.52;;
17594;Laerm;8916;47.086;15.920;2022-10-17T09:28:33;48.33;46.97;49.57;;
17594;Laerm;8916;47.086;15.920;2022-10-17T09:31:08;48.31;47.20;49.44;;
17594;Laerm;8916;47.086;15.920;2022-10-17T09:33:42;48.31;47.24;49.73;;
17594;Laerm;8916;47.086;15.920;2022-10-17T09:36:30;48.31;47.16;49.72;;
17594;Laerm;8916;47.086;15.920;2022-10-17T09:39:04;48.33;47.18;49.50;;
17594;Laerm;8916;47.086;15.920;2022-10-17T09:41:36;48.37;47.28;49.90;;
17594;Laerm;8916;47.086;15.920;2022-10-17T09:44:19;48.35;47.16;49.69;;
17594;Laerm;8916;47.086;15.920;2022-10-17T09:47:09;48.42;47.34;50.02;;
17594;Laerm;8916;47.086;15.920;2022-10-17T09:49:43;48.47;47.34;49.84;;
17594;Laerm;8916;47.086;15.920;2022-10-17T09:52:17;48.51;47.32;49.75;;
17594;Laerm;8916;47.086;15.920;2022-10-17T09:54:49;48.55;47.42;49.71;;
17594;Laerm;8916;47.086;15.920;2022-10-17T09:57:20;48.55;47.08;49.87;;
17594;Laerm;8916;47.086;15.920;2022-10-17T09:59:57;48.56;47.36;49.73;;
17594;Laerm;8916;47.086;15.920;2022-10-17T10:02:29;48.59;47.44;49.72;;
17594;Laerm;8916;47.086;15.920;2022-10-17T10:05:03;48.57;47.46;49.87;;
17594;Laerm;8916;47.086;15.920;2022-10-17T10:07:37;48.53;47.38;49.67;;
17594;Laerm;8916;47.086;15.920;2022-10-17T10:10:23;48.53;47.28;49.69;;
17594;Laerm;8916;47.086;15.920;2022-10-17T10:13:03;48.53;47.46;49.63;;
17594;Laerm;8916;47.086;15.920;2022-10-17T10:15:36;48.53;47.44;49.83;;
17594;Laerm;8916;47.086;15.920;2022-10-17T10:18:31;48.50;47.34;49.70;;
17594;Laerm;8916;47.086;15.920;2022-10-17T10:21:09;48.44;47.28;49.85;;
17594;Laerm;8916;47.086;15.920;2022-10-17T10:23:41;48.46;47.24;49.53;;
17594;Laerm;8916;47.086;15.920;2022-10-17T10:26:23;48.49;47.48;49.90;;
17594;Laerm;8916;47.086;15.920;2022-10-17T10:29:00;48.46;47.24;49.74;;
17594;Laerm;8916;47.086;15.920;2022-10-17T10:31:33;48.39;47.20;49.66;;
17594;Laerm;8916;47.086;15.920;2022-10-17T10:34:17;48.40;46.82;49.50;;
17594;Laerm;8916;47.086;15.920;2022-10-17T10:36:55;48.44;47.46;49.73;;
17594;Laerm;8916;47.086;15.920;2022-10-17T10:39:42;48.50;47.40;49.67;;
17594;Laerm;8916;47.086;15.920;2022-10-17T10:42:27;48.52;47.48;50.00;;
17594;Laerm;8916;47.086;15.920;2022-10-17T10:45:00;48.54;47.42;50.24;;
17594;Laerm;8916;47.086;15.920;2022-10-17T10:47:31;48.53;47.39;49.72;;
17594;Laerm;8916;47.086;15.920;2022-10-17T10:50:21;48.53;47.38;49.89;;
17594;Laerm;8916;47.086;15.920;2022-10-17T10:53:04;48.53;47.54;49.79;;
17594;Laerm;8916;47.086;15.920;2022-10-17T10:55:44;48.53;47.34;49.80;;
17594;Laerm;8916;47.086;15.920;2022-10-17T10:58:27;48.53;47.32;49.74;;
17594;Laerm;8916;47.086;15.920;2022-10-17T11:01:06;48.54;47.38;49.81;;
17594;Laerm;8916;47.086;15.920;2022-10-17T11:03:48;48.53;47.32;49.70;;
17594;Laerm;8916;47.086;15.920;2022-10-17T11:06:22;48.53;47.16;49.71;;
17594;Laerm;8916;47.086;15.920;2022-10-17T11:09:11;48.53;47.46;49.58;;
17594;Laerm;8916;47.086;15.920;2022-10-17T11:11:47;48.53;47.40;49.71;;
17594;Laerm;8916;47.086;15.920;2022-10-17T11:14:25;48.53;47.46;49.96;;
17594;Laerm;8916;47.086;15.920;2022-10-17T11:17:04;48.52;47.32;49.63;;
17594;Laerm;8916;47.086;15.920;2022-10-17T11:19:41;48.53;47.28;49.83;;
17594;Laerm;8916;47.086;15.920;2022-10-17T11:22:18;48.51;47.32;49.88;;
17594;Laerm;8916;47.086;15.920;2022-10-17T11:24:58;48.52;47.54;49.70;;
17594;Laerm;8916;47.086;15.920;2022-10-17T11:27:31;48.50;47.26;49.81;;
17594;Laerm;8916;47.086;15.920;2022-10-17T11:30:02;48.50;47.34;49.67;;
17594;Laerm;8916;47.086;15.920;2022-10-17T11:32:36;48.49;47.50;49.65;;
17594;Laerm;8916;47.086;15.920;2022-10-17T11:35:17;48.49;47.30;49.78;;
17594;Laerm;8916;47.086;15.920;2022-10-17T11:37:54;48.49;47.30;49.81;;
17594;Laerm;8916;47.086;15.920;2022-10-17T11:40:29;48.49;47.34;49.65;;
17594;Laerm;8916;47.086;15.920;2022-10-17T11:43:03;48.48;47.40;49.75;;
17594;Laerm;8916;47.086;15.920;2022-10-17T11:45:43;48.48;47.36;49.77;;
17594;Laerm;8916;47.086;15.920;2022-10-17T11:48:19;48.49;47.38;49.76;;
17594;Laerm;8916;47.086;15.920;2022-10-17T11:50:54;48.48;47.14;49.74;;
17594;Laerm;8916;47.086;15.920;2022-10-17T11:53:50;48.45;47.24;49.74;;
17594;Laerm;8916;47.086;15.920;2022-10-17T11:56:30;48.43;47.22;49.66;;
17594;Laerm;8916;47.086;15.920;2022-10-17T11:59:38;48.43;47.46;49.74;;
17594;Laerm;8916;47.086;15.920;2022-10-17T12:02:20;48.44;47.36;49.66;;
17594;Laerm;8916;47.086;15.920;2022-10-17T12:05:01;48.44;47.24;49.66;;
17594;Laerm;8916;47.086;15.920;2022-10-17T12:07:45;48.45;47.00;49.67;;
17594;Laerm;8916;47.086;15.920;2022-10-17T12:10:32;48.46;47.40;49.62;;
17594;Laerm;8916;47.086;15.920;2022-10-17T12:13:49;48.46;47.36;49.62;;
17594;Laerm;8916;47.086;15.920;2022-10-17T12:16:50;48.43;47.40;49.63;;
17594;Laerm;8916;47.086;15.920;2022-10-17T12:19:30;48.39;47.26;49.66;;
17594;Laerm;8916;47.086;15.920;2022-10-17T12:22:18;48.40;47.34;49.50;;
17594;Laerm;8916;47.086;15.920;2022-10-17T12:24:58;48.42;47.34;49.88;;
17594;Laerm;8916;47.086;15.920;2022-10-17T12:27:40;48.44;47.14;49.57;;
17594;Laerm;8916;47.086;15.920;2022-10-17T12:30:22;48.46;47.20;49.64;;
17594;Laerm;8916;47.086;15.920;2022-10-17T12:33:02;48.46;47.26;49.77;;
17594;Laerm;8916;47.086;15.920;2022-10-17T12:35:36;48.45;47.28;50.08;;
17594;Laerm;8916;47.086;15.920;2022-10-17T12:38:27;48.45;47.20;49.72;;
17594;Laerm;8916;47.086;15.920;2022-10-17T12:41:02;48.45;47.14;49.67;;
17594;Laerm;8916;47.086;15.920;2022-10-17T12:43:55;48.45;47.38;49.80;;
17594;Laerm;8916;47.086;15.920;2022-10-17T12:46:55;48.42;47.32;49.51;;
17594;Laerm;8916;47.086;15.920;2022-10-17T12:49:42;48.44;47.16;49.79;;
17594;Laerm;8916;47.086;15.920;2022-10-17T12:52:18;48.45;47.28;50.01;;
17594;Laerm;8916;47.086;15.920;2022-10-17T12:54:58;48.45;47.26;49.56;;
17594;Laerm;8916;47.086;15.920;2022-10-17T12:57:54;48.44;47.16;49.74;;
17594;Laerm;8916;47.086;15.920;2022-10-17T13:00:33;48.43;47.26;49.58;;
17594;Laerm;8916;47.086;15.920;2022-10-17T13:03:11;48.44;47.38;49.62;;
17594;Laerm;8916;47.086;15.920;2022-10-17T13:05:47;48.43;47.18;49.64;;
17594;Laerm;8916;47.086;15.920;2022-10-17T13:08:21;48.38;47.20;49.58;;
17594;Laerm;8916;47.086;15.920;2022-10-17T13:10:53;48.36;47.32;49.60;;
17594;Laerm;8916;47.086;15.920;2022-10-17T13:13:37;48.38;47.20;49.72;;
17594;Laerm;8916;47.086;15.920;2022-10-17T13:16:27;48.38;47.24;49.64;;
17594;Laerm;8916;47.086;15.920;2022-10-17T13:18:57;48.41;47.36;49.80;;
17594;Laerm;8916;47.086;15.920;2022-10-17T13:21:28;48.38;47.32;49.71;;
17594;Laerm;8916;47.086;15.920;2022-10-17T13:23:57;48.33;47.10;49.58;;
17594;Laerm;8916;47.086;15.920;2022-10-17T13:26:28;48.29;47.22;49.98;;
17594;Laerm;8916;47.086;15.920;2022-10-17T13:29:02;48.24;47.14;49.44;;
17594;Laerm;8916;47.086;15.920;2022-10-17T13:31:34;48.18;47.06;49.92;;
17594;Laerm;8916;47.086;15.920;2022-10-17T13:34:12;48.12;47.04;49.65;;
17594;Laerm;8916;47.086;15.920;2022-10-17T13:36:49;48.10;46.84;49.35;;
17594;Laerm;8916;47.086;15.920;2022-10-17T13:39:22;48.16;46.84;49.59;;
17594;Laerm;8916;47.086;15.920;2022-10-17T13:42:12;48.24;47.06;49.47;;
17594;Laerm;8916;47.086;15.920;2022-10-17T13:44:45;48.31;46.95;49.71;;
17594;Laerm;8916;47.086;15.920;2022-10-17T13:47:22;48.34;47.22;49.50;;
17594;Laerm;8916;47.086;15.920;2022-10-17T13:49:54;48.37;47.30;49.51;;
17594;Laerm;8916;47.086;15.920;2022-10-17T13:52:27;48.38;47.28;49.62;;
17594;Laerm;8916;47.086;15.920;2022-10-17T13:55:07;48.37;47.38;49.62;;
17594;Laerm;8916;47.086;15.920;2022-10-17T13:57:43;48.32;46.97;49.47;;
17594;Laerm;8916;47.086;15.920;2022-10-17T14:00:19;48.32;47.16;49.70;;
17594;Laerm;8916;47.086;15.920;2022-10-17T14:02:48;48.31;47.16;49.74;;
17594;Laerm;8916;47.086;15.920;2022-10-17T14:05:19;48.27;47.16;49.39;;
17594;Laerm;8916;47.086;15.920;2022-10-17T14:07:53;48.32;47.20;49.49;;
17594;Laerm;8916;47.086;15.920;2022-10-17T14:10:43;48.32;47.12;49.72;;
17594;Laerm;8916;47.086;15.920;2022-10-17T14:13:20;48.29;47.22;49.64;;
17594;Laerm;8916;47.086;15.920;2022-10-17T14:15:51;48.20;47.10;49.56;;
17594;Laerm;8916;47.086;15.920;2022-10-17T14:18:25;48.11;47.12;49.30;;
17594;Laerm;8916;47.086;15.920;2022-10-17T14:21:03;48.09;46.93;49.51;;
17594;Laerm;8916;47.086;15.920;2022-10-17T14:24:24;48.09;46.91;49.39;;
17594;Laerm;8916;47.086;15.920;2022-10-17T14:26:56;48.11;46.97;49.69;;
17594;Laerm;8916;47.086;15.920;2022-10-17T14:29:29;48.10;46.97;49.41;;
17594;Laerm;8916;47.086;15.920;2022-10-17T14:32:04;48.09;46.84;49.51;;
17594;Laerm;8916;47.086;15.920;2022-10-17T14:34:37;48.12;47.04;49.39;;
17594;Laerm;8916;47.086;15.920;2022-10-17T14:37:24;48.13;46.95;49.51;;